Terminal Aerodrome Forecast
Issued by NWS Sioux Falls, SD

Home | Current Version | Previous Version | Text Only | Print | Product List | Glossary On
Versions: 1 2 3 4 5 6 7 8 9 10 11 12 13 14 15 16 17 18
557
FTUS43 KFSD 122346
TAFHON
TAF
KHON 122346Z 1300/1324 36007KT P6SM SCT200
     FM130600 11005KT P6SM BKN200
     FM131300 13013KT P6SM OVC045
     FM131500 14014G21KT P6SM OVC030=

USA.gov is the U.S. government's official web portal to all federal, state and local government web resources and services.